Time;durP1;ratioP1;P1;durP2;ratioP2;P2;SDS_P1;SDS_P2;PMS_P1;PMS_P2;Temp;Humidity;BMP_temperature;BMP_pressure;BME280_temperature;BME280_humidity;BME280_pressure;Samples;Min_cycle;Max_cycle;Signal;HPM_P1;HPM_P2
2024/02/06 00:01:30;;;;;;;20.92;8.23;;;;;;;7.92;100.00;101423.00;5102067;28;20039;-76
2024/02/06 00:03:56;;;;;;;21.23;8.32;;;;;;;7.89;100.00;101412.38;5084933;28;20036;-76
2024/02/06 00:06:22;;;;;;;20.98;7.60;;;;;;;7.96;100.00;101416.94;5103413;28;20028;-76
2024/02/06 00:08:47;;;;;;;20.88;7.70;;;;;;;7.96;100.00;101427.47;5101656;28;20556;-76
2024/02/06 00:11:13;;;;;;;20.52;7.63;;;;;;;7.96;100.00;101419.56;5104328;28;20071;-76
2024/02/06 00:13:38;;;;;;;20.67;7.55;;;;;;;7.93;100.00;101422.13;5100486;28;20050;-76
2024/02/06 00:16:11;;;;;;;22.08;7.80;;;;;;;7.98;100.00;101415.25;5103905;28;20039;-76
2024/02/06 00:18:37;;;;;;;21.02;7.45;;;;;;;8.07;100.00;101403.13;5100788;28;20471;-76
2024/02/06 00:21:02;;;;;;;20.58;7.75;;;;;;;8.06;100.00;101419.81;5103692;28;20060;-77
2024/02/06 00:23:28;;;;;;;20.05;7.22;;;;;;;8.09;100.00;101409.34;5102354;28;20096;-76
2024/02/06 00:25:55;;;;;;;21.10;7.70;;;;;;;8.07;100.00;101397.84;5102359;28;20089;-76
2024/02/06 00:28:21;;;;;;;20.45;6.97;;;;;;;8.13;100.00;101385.75;5103084;28;20522;-76
2024/02/06 00:30:46;;;;;;;21.02;6.85;;;;;;;8.15;100.00;101384.00;5101265;28;20135;-76
2024/02/06 00:33:11;;;;;;;20.10;6.85;;;;;;;8.22;100.00;101377.16;5086096;28;20027;-76
2024/02/06 00:35:37;;;;;;;21.45;6.90;;;;;;;8.19;100.00;101369.19;5101291;28;20036;-76
2024/02/06 00:38:02;;;;;;;20.08;7.10;;;;;;;8.22;100.00;101363.09;5103532;28;20356;-77
2024/02/06 00:40:28;;;;;;;19.40;6.90;;;;;;;8.19;100.00;101363.91;5102012;28;20032;-76
2024/02/06 00:42:53;;;;;;;20.60;7.07;;;;;;;8.20;100.00;101360.44;5102316;28;20475;-76
2024/02/06 00:45:18;;;;;;;21.45;6.78;;;;;;;8.17;100.00;101369.16;5103275;28;20036;-76
2024/02/06 00:47:47;;;;;;;21.20;6.95;;;;;;;8.21;100.00;101378.00;5100898;28;20024;-76
2024/02/06 00:50:13;;;;;;;20.40;6.93;;;;;;;8.21;100.00;101367.47;5104248;28;20459;-76
2024/02/06 00:52:38;;;;;;;20.45;6.57;;;;;;;8.17;100.00;101353.34;5100794;28;20060;-76
2024/02/06 00:55:04;;;;;;;18.98;6.63;;;;;;;8.22;100.00;101363.09;5103533;28;20451;-76
2024/02/06 00:57:29;;;;;;;20.25;6.45;;;;;;;8.22;100.00;101355.22;5101734;28;20520;-76
2024/02/06 00:59:54;;;;;;;20.25;6.63;;;;;;;8.24;100.00;101338.56;5067481;28;20085;-76
2024/02/06 01:02:20;;;;;;;20.20;6.35;;;;;;;8.23;100.00;101328.91;5102839;28;20027;-77
2024/02/06 01:04:45;;;;;;;19.52;6.30;;;;;;;8.31;100.00;101332.56;5101124;28;20039;-77
2024/02/06 01:07:10;;;;;;;19.90;5.93;;;;;;;8.34;100.00;101348.47;5103764;28;20397;-77
2024/02/06 01:09:36;;;;;;;19.30;6.05;;;;;;;8.37;100.00;101343.25;5082681;28;20094;-77
2024/02/06 01:12:01;;;;;;;20.15;5.72;;;;;;;8.42;100.00;101334.53;5102953;28;20043;-77
2024/02/06 01:14:26;;;;;;;19.13;5.95;;;;;;;8.41;100.00;101338.94;5101802;28;20034;-77
2024/02/06 01:16:52;;;;;;;19.35;5.55;;;;;;;8.48;100.00;101342.63;5101943;28;20111;-77
2024/02/06 01:19:18;;;;;;;20.17;6.00;;;;;;;8.48;100.00;101334.72;5103148;28;20066;-77
2024/02/06 01:21:43;;;;;;;19.17;5.90;;;;;;;8.49;100.00;101323.31;5082420;28;20020;-77
2024/02/06 01:24:09;;;;;;;20.15;5.40;;;;;;;8.50;100.00;101325.09;5104282;28;20038;-77
2024/02/06 01:26:34;;;;;;;20.02;5.90;;;;;;;8.44;100.00;101319.66;5104358;28;20020;-77
2024/02/06 01:29:00;;;;;;;18.50;5.43;;;;;;;8.51;100.00;101318.97;5106015;28;20599;-77
2024/02/06 01:31:25;;;;;;;19.67;5.65;;;;;;;8.55;100.00;101310.28;5105829;28;20039;-77
2024/02/06 01:33:51;;;;;;;19.63;5.50;;;;;;;8.53;100.00;101309.34;5075949;28;20020;-77
2024/02/06 01:36:17;;;;;;;22.13;5.70;;;;;;;8.50;100.00;101296.09;5106771;28;20024;-77
2024/02/06 01:38:42;;;;;;;18.50;5.55;;;;;;;8.51;100.00;101297.91;5104151;28;20039;-77
2024/02/06 01:41:08;;;;;;;18.45;5.28;;;;;;;8.52;100.00;101295.28;5107183;28;20390;-76
2024/02/06 01:43:33;;;;;;;17.83;5.13;;;;;;;8.50;100.00;101301.38;5104288;28;20360;-77
2024/02/06 01:45:59;;;;;;;18.15;5.50;;;;;;;8.51;100.00;101296.13;5087610;28;20062;-76
2024/02/06 01:48:26;;;;;;;19.73;5.43;;;;;;;8.52;100.00;101299.69;5105126;28;20359;-76
2024/02/06 01:50:52;;;;;;;19.45;5.43;;;;;;;8.51;100.00;101296.13;5104675;28;20073;-76
2024/02/06 01:53:19;;;;;;;19.40;5.53;;;;;;;8.53;100.00;101294.44;5106476;28;20020;-76
2024/02/06 01:55:45;;;;;;;17.98;5.30;;;;;;;8.58;100.00;101298.88;5103534;28;20028;-77
2024/02/06 01:58:12;;;;;;;19.65;5.53;;;;;;;8.53;100.00;101310.25;5088825;28;20020;-77
2024/02/06 02:00:39;;;;;;;18.05;5.47;;;;;;;8.59;100.00;101296.31;5103383;28;20024;-77
2024/02/06 02:03:07;;;;;;;18.08;5.53;;;;;;;8.57;100.00;101297.13;5106113;28;20035;-76
2024/02/06 02:05:33;;;;;;;19.77;5.45;;;;;;;8.59;100.00;101295.41;5103861;28;20024;-77
2024/02/06 02:07:58;;;;;;;19.02;5.30;;;;;;;8.60;100.00;101290.16;5087046;28;20059;-76
2024/02/06 02:10:24;;;;;;;21.52;5.50;;;;;;;8.59;100.00;101291.03;5071576;28;20467;-76
2024/02/06 02:12:49;;;;;;;19.10;5.40;;;;;;;8.59;100.00;101288.41;5087791;28;20034;-76
2024/02/06 02:15:15;;;;;;;19.10;5.50;;;;;;;8.61;100.00;101285.78;5103114;28;20024;-76
2024/02/06 02:17:40;;;;;;;20.13;5.78;;;;;;;8.59;100.00;101276.94;5106736;28;20028;-76
2024/02/06 02:20:06;;;;;;;20.10;5.90;;;;;;;8.59;100.00;101272.59;5103406;28;20109;-76
2024/02/06 02:22:32;;;;;;;20.15;5.93;;;;;;;8.58;100.00;101262.91;5105573;28;20028;-76
2024/02/06 02:24:58;;;;;;;20.23;6.05;;;;;;;8.63;100.00;101276.16;5104213;28;20367;-76
2024/02/06 02:27:24;;;;;;;20.52;5.90;;;;;;;8.60;100.00;101265.56;5104384;28;20024;-76
2024/02/06 02:29:51;;;;;;;20.25;5.80;;;;;;;8.59;100.00;101271.69;5087075;28;20036;-77
2024/02/06 02:32:18;;;;;;;19.58;5.97;;;;;;;8.57;100.00;101270.78;5102956;28;20031;-78
2024/02/06 02:34:49;;;;;;;20.67;6.13;;;;;;;8.58;100.00;101262.91;5106253;28;20032;-77
2024/02/06 02:37:15;;;;;;;18.92;5.88;;;;;;;8.59;100.00;101254.16;5102576;28;20494;-78
2024/02/06 02:39:41;;;;;;;20.85;5.70;;;;;;;8.61;100.00;101256.81;5087850;28;20104;-78
2024/02/06 02:42:06;;;;;;;19.48;5.75;;;;;;;8.61;100.00;101244.50;5103005;28;20025;-78
2024/02/06 02:44:32;;;;;;;20.67;6.20;;;;;;;8.61;100.00;101248.91;5077351;28;20031;-78
2024/02/06 02:46:57;;;;;;;19.77;5.90;;;;;;;8.62;100.00;101248.00;5085814;28;20112;-78
2024/02/06 02:49:22;;;;;;;19.42;5.88;;;;;;;8.55;100.00;101240.00;5103494;28;20550;-78
2024/02/06 02:51:50;;;;;;;20.63;6.35;;;;;;;8.57;100.00;101228.63;5105256;28;20036;-78
2024/02/06 02:54:16;;;;;;;18.63;5.90;;;;;;;8.60;100.00;101237.44;5102352;28;20031;-78
2024/02/06 02:56:41;;;;;;;19.83;6.10;;;;;;;8.54;100.00;101230.31;5105886;28;20028;-78
2024/02/06 02:59:07;;;;;;;19.67;6.00;;;;;;;8.55;100.00;101231.22;5102403;28;20093;-77
2024/02/06 03:01:32;;;;;;;20.85;6.70;;;;;;;8.63;100.00;101226.97;5086315;28;20026;-78
2024/02/06 03:03:58;;;;;;;19.77;6.05;;;;;;;8.63;100.00;101213.78;5085618;28;20054;-78
2024/02/06 03:06:23;;;;;;;19.80;6.00;;;;;;;8.61;100.00;101225.19;5085083;28;20115;-78
2024/02/06 03:08:48;;;;;;;20.98;6.18;;;;;;;8.60;100.00;101213.72;5086278;28;20492;-78
2024/02/06 03:11:14;;;;;;;21.48;6.15;;;;;;;8.57;100.00;101216.31;5084145;28;20075;-77
2024/02/06 03:13:43;;;;;;;19.08;6.18;;;;;;;8.61;100.00;101199.69;5101848;28;20020;-77
2024/02/06 03:16:09;;;;;;;20.70;6.43;;;;;;;8.63;100.00;101197.97;5105076;28;20077;-77
2024/02/06 03:18:35;;;;;;;20.42;6.05;;;;;;;8.64;100.00;101204.16;5102751;28;20027;-77
2024/02/06 03:21:00;;;;;;;19.50;6.10;;;;;;;8.61;100.00;101196.19;5104022;28;20449;-77
2024/02/06 03:23:26;;;;;;;19.58;6.10;;;;;;;8.65;100.00;101193.63;5103732;28;20053;-77
2024/02/06 03:25:52;;;;;;;19.60;5.80;;;;;;;8.65;100.00;101196.28;5102640;28;20049;-76
2024/02/06 03:28:17;;;;;;;19.75;5.88;;;;;;;8.64;100.00;101189.22;5104591;28;20065;-77
2024/02/06 03:30:43;;;;;;;19.52;5.97;;;;;;;8.67;100.00;101169.94;5101712;28;20505;-77
2024/02/06 03:33:09;;;;;;;18.88;6.10;;;;;;;8.76;100.00;101191.16;5086679;28;20035;-77
2024/02/06 03:35:35;;;;;;;21.63;6.20;;;;;;;8.68;100.00;101183.13;5102002;28;20058;-77
2024/02/06 03:38:01;;;;;;;19.52;6.22;;;;;;;8.72;100.00;101192.88;5103941;28;20069;-77
2024/02/06 03:40:27;;;;;;;18.42;5.68;;;;;;;8.67;100.00;101196.28;5103118;28;20470;-77
2024/02/06 03:42:52;;;;;;;20.17;6.38;;;;;;;8.59;100.00;101177.72;5084127;28;20170;-77
2024/02/06 03:45:18;;;;;;;19.00;6.13;;;;;;;8.63;100.00;101203.25;5104759;28;20031;-76
2024/02/06 03:47:43;;;;;;;20.05;6.10;;;;;;;8.60;100.00;101182.09;5100418;28;20032;-77
2024/02/06 03:50:09;;;;;;;19.92;6.25;;;;;;;8.64;100.00;101193.59;5104816;28;20130;-76
2024/02/06 03:52:35;;;;;;;20.13;6.00;;;;;;;8.62;100.00;101185.69;5083778;28;20118;-78
2024/02/06 03:55:01;;;;;;;19.05;5.90;;;;;;;8.67;100.00;101191.03;5103622;28;20039;-78
2024/02/06 03:57:26;;;;;;;19.55;5.93;;;;;;;8.63;100.00;101202.38;5103022;28;20097;-78
2024/02/06 03:59:51;;;;;;;21.45;6.07;;;;;;;8.63;100.00;101197.09;5102297;28;20471;-77
2024/02/06 04:02:17;;;;;;;19.13;5.90;;;;;;;8.65;100.00;101201.53;5086139;28;20441;-78
2024/02/06 04:04:43;;;;;;;19.67;5.60;;;;;;;8.64;100.00;101183.06;5101038;28;20028;-77
2024/02/06 04:07:08;;;;;;;20.02;6.07;;;;;;;8.62;100.00;101184.75;5086263;28;20501;-78
2024/02/06 04:09:34;;;;;;;19.63;5.90;;;;;;;8.67;100.00;101167.31;5101913;28;20028;-78
2024/02/06 04:11:59;;;;;;;19.60;5.85;;;;;;;8.63;100.00;101178.66;5103146;28;20051;-78
2024/02/06 04:14:25;;;;;;;19.95;6.13;;;;;;;8.64;100.00;101194.50;5103076;28;20106;-78
2024/02/06 04:16:54;;;;;;;19.70;5.72;;;;;;;8.67;100.00;101168.19;5101511;28;20028;-77
2024/02/06 04:19:21;;;;;;;19.70;5.82;;;;;;;8.61;100.00;101165.44;5104132;28;20390;-78
2024/02/06 04:21:46;;;;;;;19.67;6.00;;;;;;;8.57;100.00;101171.50;5101092;28;20020;-78
2024/02/06 04:24:12;;;;;;;21.30;5.93;;;;;;;8.61;100.00;101167.22;5104444;28;20031;-78
2024/02/06 04:26:37;;;;;;;20.85;6.20;;;;;;;8.57;100.00;101170.63;5101388;28;20533;-77
2024/02/06 04:29:03;;;;;;;19.23;6.30;;;;;;;8.53;100.00;101165.31;5085363;28;20387;-76
2024/02/06 04:31:28;;;;;;;19.25;5.70;;;;;;;8.55;100.00;101160.06;5084050;28;20035;-76
2024/02/06 04:33:54;;;;;;;20.35;6.38;;;;;;;8.61;100.00;101157.53;5102106;28;20036;-76
2024/02/06 04:36:20;;;;;;;20.85;6.28;;;;;;;8.66;100.00;101154.97;5103523;28;20028;-76
2024/02/06 04:38:46;;;;;;;20.33;6.15;;;;;;;8.69;100.00;101155.94;5100977;28;20494;-76
2024/02/06 04:41:11;;;;;;;19.58;6.00;;;;;;;8.77;100.00;101152.53;5104281;28;20059;-76
2024/02/06 04:43:37;;;;;;;22.77;6.60;;;;;;;8.77;100.00;101153.41;5101100;28;20073;-76
2024/02/06 04:46:02;;;;;;;21.30;6.40;;;;;;;8.73;100.00;101149.81;5102974;28;20039;-76
2024/02/06 04:48:28;;;;;;;20.58;6.22;;;;;;;8.73;100.00;101155.09;5102446;28;20056;-77
2024/02/06 04:50:53;;;;;;;20.90;6.20;;;;;;;8.77;100.00;101142.00;5101830;28;20072;-76
2024/02/06 04:53:18;;;;;;;20.00;6.50;;;;;;;8.70;100.00;101146.25;5103552;28;20027;-76
2024/02/06 04:55:44;;;;;;;21.35;6.18;;;;;;;8.67;100.00;101141.81;5100893;28;20053;-76
2024/02/06 04:58:09;;;;;;;20.80;6.55;;;;;;;8.70;100.00;101130.44;5104180;28;20458;-76
2024/02/06 05:00:34;;;;;;;20.55;6.38;;;;;;;8.63;100.00;101133.84;5105464;28;20387;-76
2024/02/06 05:03:00;;;;;;;21.08;6.95;;;;;;;8.66;100.00;101132.13;5106467;28;20028;-76
2024/02/06 05:05:25;;;;;;;19.58;6.13;;;;;;;8.69;100.00;101129.56;5106303;28;20135;-76
2024/02/06 05:07:51;;;;;;;20.27;6.53;;;;;;;8.65;100.00;101137.38;5105229;28;20127;-76
2024/02/06 05:10:16;;;;;;;22.27;6.50;;;;;;;8.57;100.00;101129.34;5107726;28;20069;-77
2024/02/06 05:12:42;;;;;;;20.55;6.63;;;;;;;8.67;100.00;101140.94;5104537;28;20067;-76
2024/02/06 05:15:08;;;;;;;20.98;6.28;;;;;;;8.68;100.00;101127.78;5107701;28;20181;-76
2024/02/06 05:17:33;;;;;;;20.27;6.68;;;;;;;8.59;100.00;101117.09;5105131;28;20504;-76
2024/02/06 05:19:59;;;;;;;20.52;6.68;;;;;;;8.62;100.00;101130.34;5105919;28;20386;-77
2024/02/06 05:22:24;;;;;;;21.60;6.50;;;;;;;8.60;100.00;101116.22;5106464;28;20522;-76
2024/02/06 05:24:49;;;;;;;20.92;6.65;;;;;;;8.58;100.00;101131.13;5104715;28;20028;-77
2024/02/06 05:27:15;;;;;;;21.58;6.47;;;;;;;8.53;100.00;101122.25;5107501;28;20024;-77
2024/02/06 05:29:41;;;;;;;20.10;6.30;;;;;;;8.58;100.00;101112.69;5104094;28;20135;-76
2024/02/06 05:32:06;;;;;;;21.67;6.80;;;;;;;8.58;100.00;101130.22;5106771;28;20035;-77
2024/02/06 05:34:32;;;;;;;22.25;6.68;;;;;;;8.54;100.00;101113.50;5105241;28;20057;-77
2024/02/06 05:36:57;;;;;;;20.10;6.40;;;;;;;8.57;100.00;101108.28;5105489;28;20564;-77
2024/02/06 05:39:23;;;;;;;19.10;6.50;;;;;;;8.51;100.00;101090.59;5106373;28;20435;-77
2024/02/06 05:41:48;;;;;;;21.52;6.80;;;;;;;8.48;100.00;101113.41;5085984;28;20032;-77
2024/02/06 05:44:14;;;;;;;20.42;6.30;;;;;;;8.43;100.00;101115.00;5107089;28;20027;-77
2024/02/06 05:46:39;;;;;;;20.90;6.82;;;;;;;8.43;100.00;101099.22;5103797;28;20024;-77
2024/02/06 05:49:04;;;;;;;22.25;6.40;;;;;;;8.40;100.00;101105.31;5106296;28;20387;-78
2024/02/06 05:51:30;;;;;;;20.63;6.57;;;;;;;8.47;100.00;101087.91;5104943;28;20027;-78
2024/02/06 05:53:55;;;;;;;20.67;6.40;;;;;;;8.51;100.00;101102.91;5086649;28;20467;-78
2024/02/06 05:56:21;;;;;;;20.75;6.68;;;;;;;8.56;100.00;101095.94;5106409;28;20034;-78
2024/02/06 05:58:46;;;;;;;21.27;6.20;;;;;;;8.63;100.00;101094.31;5085286;28;20028;-78
2024/02/06 06:01:12;;;;;;;22.15;6.00;;;;;;;8.71;100.00;101068.97;5107061;28;20081;-78
2024/02/06 06:03:37;;;;;;;20.38;6.28;;;;;;;8.71;100.00;101074.25;5103898;28;20060;-78
2024/02/06 06:06:02;;;;;;;20.00;5.85;;;;;;;8.72;100.00;101076.91;5105527;28;20119;-78
2024/02/06 06:08:28;;;;;;;20.05;6.35;;;;;;;8.67;100.00;101086.47;5104765;28;20040;-78
2024/02/06 06:10:54;;;;;;;22.23;6.30;;;;;;;8.67;100.00;101068.03;5103647;28;20032;-78
2024/02/06 06:13:19;;;;;;;22.13;6.38;;;;;;;8.71;100.00;101080.41;5106102;28;20077;-78
2024/02/06 06:15:46;;;;;;;21.15;6.20;;;;;;;8.67;100.00;101086.47;5103082;28;20039;-78
2024/02/06 06:18:11;;;;;;;22.90;6.68;;;;;;;8.73;100.00;101083.94;5088403;28;20027;-78
2024/02/06 06:20:37;;;;;;;22.05;6.57;;;;;;;8.72;100.00;101076.91;5103484;28;20040;-78
2024/02/06 06:23:02;;;;;;;21.05;6.30;;;;;;;8.72;100.00;101062.81;5087137;28;20020;-78
2024/02/06 06:25:29;;;;;;;20.42;6.07;;;;;;;8.73;100.00;101073.38;5104747;28;20031;-78
2024/02/06 06:27:54;;;;;;;22.20;6.40;;;;;;;8.76;100.00;101066.41;5103953;28;20024;-78
2024/02/06 06:30:20;;;;;;;21.48;6.38;;;;;;;8.79;100.00;101066.44;5105769;28;20405;-76
2024/02/06 06:32:45;;;;;;;20.95;6.15;;;;;;;8.77;100.00;101058.53;5084553;28;20374;-76
2024/02/06 06:35:10;;;;;;;20.33;6.05;;;;;;;8.77;100.00;101062.91;5105974;28;20059;-76
2024/02/06 06:37:36;;;;;;;22.40;6.53;;;;;;;8.73;100.00;101068.13;5103599;28;20036;-76
2024/02/06 06:40:01;;;;;;;22.05;6.47;;;;;;;8.71;100.00;101061.94;5086196;28;20122;-76
2024/02/06 06:42:27;;;;;;;22.00;6.65;;;;;;;8.74;100.00;101066.38;5104488;28;20406;-76
2024/02/06 06:44:52;;;;;;;20.85;6.38;;;;;;;8.70;100.00;101060.16;5103439;28;20028;-76
2024/02/06 06:47:18;;;;;;;23.00;6.70;;;;;;;8.68;100.00;101068.94;5105550;28;20121;-77
2024/02/06 06:49:43;;;;;;;23.10;6.90;;;;;;;8.57;100.00;101059.97;5102211;28;20115;-77
2024/02/06 06:52:09;;;;;;;22.27;6.22;;;;;;;8.49;100.00;101052.81;5105517;28;20504;-76
2024/02/06 06:54:34;;;;;;;21.75;6.38;;;;;;;8.42;100.00;101065.81;5103016;28;20381;-76
2024/02/06 06:57:03;;;;;;;22.05;6.57;;;;;;;8.34;100.00;101063.06;5104251;28;20032;-76
2024/02/06 06:59:32;;;;;;;20.85;6.38;;;;;;;8.39;100.00;101074.56;5103965;28;20020;-76
2024/02/06 07:01:58;;;;;;;21.05;6.68;;;;;;;8.29;100.00;101049.81;5103612;28;20062;-76
2024/02/06 07:04:27;;;;;;;21.65;6.45;;;;;;;8.34;100.00;101065.69;5104465;28;20497;-76
2024/02/06 07:06:53;;;;;;;21.73;6.65;;;;;;;8.42;100.00;101050.00;5102768;28;20020;-76
2024/02/06 07:09:20;;;;;;;22.98;6.72;;;;;;;8.49;100.00;101046.66;5105089;28;20579;-76
2024/02/06 07:11:46;;;;;;;22.25;6.40;;;;;;;8.63;100.00;101046.88;5101904;28;20024;-77
2024/02/06 07:14:11;;;;;;;21.75;6.57;;;;;;;8.72;100.00;101050.56;5105481;28;20496;-76
2024/02/06 07:16:37;;;;;;;22.10;6.47;;;;;;;8.75;100.00;101040.91;5102641;28;20032;-77
2024/02/06 07:19:02;;;;;;;22.58;6.45;;;;;;;8.81;100.00;101038.34;5103927;28;20111;-77
2024/02/06 07:21:28;;;;;;;23.05;6.70;;;;;;;8.79;100.00;101032.19;5103686;28;20432;-77
2024/02/06 07:23:53;;;;;;;23.17;6.43;;;;;;;8.83;100.00;101015.56;5102374;28;20104;-77
2024/02/06 07:26:19;;;;;;;21.05;6.13;;;;;;;8.92;100.00;101046.44;5104931;28;20140;-77
2024/02/06 07:28:45;;;;;;;22.73;6.22;;;;;;;8.94;100.00;101023.59;5083372;28;20471;-77
2024/02/06 07:31:12;;;;;;;21.90;6.10;;;;;;;8.94;100.00;101019.22;5104674;28;20043;-77
2024/02/06 07:33:39;;;;;;;19.98;5.43;;;;;;;8.96;100.00;101016.63;5102521;28;20110;-77
2024/02/06 07:36:04;;;;;;;22.25;5.97;;;;;;;8.99;100.00;101022.81;5103821;28;20509;-76
2024/02/06 07:38:30;;;;;;;22.83;6.00;;;;;;;8.99;100.00;101016.66;5084992;28;20106;-77
2024/02/06 07:40:56;;;;;;;22.02;6.78;;;;;;;9.01;100.00;101031.63;5102626;28;20059;-77
2024/02/06 07:43:21;;;;;;;23.10;6.30;;;;;;;9.04;100.00;101026.41;5104451;28;20043;-77
2024/02/06 07:45:47;;;;;;;21.88;5.75;;;;;;;9.04;100.00;101018.50;5101512;28;20093;-77
2024/02/06 07:48:12;;;;;;;22.25;5.80;;;;;;;9.10;100.00;101022.97;5101347;28;20024;-77
2024/02/06 07:50:37;;;;;;;21.45;5.95;;;;;;;9.11;100.00;101037.03;5103841;28;20039;-77
2024/02/06 07:53:03;;;;;;;22.83;5.75;;;;;;;9.11;100.00;101026.47;5102374;28;20036;-78
2024/02/06 07:55:28;;;;;;;19.63;5.45;;;;;;;9.11;100.00;101029.13;5102773;28;20052;-78
2024/02/06 07:57:53;;;;;;;20.98;6.07;;;;;;;9.18;100.00;101039.75;5104108;28;20059;-78
2024/02/06 08:00:20;;;;;;;20.95;5.47;;;;;;;9.17;100.00;101032.69;5101349;28;20044;-78
2024/02/06 08:02:45;;;;;;;21.85;5.95;;;;;;;9.15;100.00;101060.81;5104784;28;20076;-78
2024/02/06 08:05:11;;;;;;;22.70;5.72;;;;;;;9.15;100.00;101018.63;5083076;28;20036;-78
2024/02/06 08:07:39;;;;;;;21.90;6.13;;;;;;;9.24;100.00;101033.69;5103492;28;20042;-78
2024/02/06 08:10:04;;;;;;;21.30;6.00;;;;;;;9.21;100.00;101013.41;5102259;28;20039;-78
2024/02/06 08:12:30;;;;;;;20.48;5.55;;;;;;;9.23;100.00;101021.34;5102560;28;20031;-78
2024/02/06 08:14:55;;;;;;;21.00;5.70;;;;;;;9.26;100.00;101010.81;5103508;28;20016;-77
2024/02/06 08:17:21;;;;;;;21.40;5.65;;;;;;;9.32;100.00;101005.66;5083266;28;20368;-78
2024/02/06 08:19:46;;;;;;;20.52;5.70;;;;;;;9.28;100.00;101027.56;5104467;28;20027;-78
2024/02/06 08:22:12;;;;;;;19.90;5.22;;;;;;;9.30;100.00;101006.50;5101208;28;20025;-78
2024/02/06 08:24:37;;;;;;;22.55;5.47;;;;;;;9.30;100.00;101023.19;5103721;28;20040;-78
2024/02/06 08:27:04;;;;;;;19.80;5.47;;;;;;;9.33;100.00;101015.31;5084292;28;20043;-78
2024/02/06 08:29:30;;;;;;;20.05;5.38;;;;;;;9.34;100.00;101009.19;5102541;28;20066;-78
2024/02/06 08:31:55;;;;;;;21.70;5.70;;;;;;;9.41;100.00;101032.13;5085189;28;20032;-76
2024/02/06 08:34:21;;;;;;;20.40;5.30;;;;;;;9.43;100.00;101040.94;5103863;28;20039;-77
2024/02/06 08:36:47;;;;;;;22.83;5.78;;;;;;;9.46;100.00;101018.13;5108022;28;20469;-77
2024/02/06 08:39:12;;;;;;;20.27;5.30;;;;;;;9.43;100.00;101027.75;5104840;28;20052;-77
2024/02/06 08:41:37;;;;;;;22.98;5.82;;;;;;;9.40;100.00;101017.16;5107461;28;20070;-77
2024/02/06 08:44:03;;;;;;;21.58;6.15;;;;;;;9.11;100.00;101053.72;5106159;28;20197;-77
2024/02/06 08:46:28;;;;;;;23.25;6.53;;;;;;;8.81;100.00;101054.16;5088033;28;20061;-77
2024/02/06 08:48:54;;;;;;;21.88;6.80;;;;;;;8.63;100.00;101049.50;5107558;28;20031;-77
2024/02/06 08:51:20;;;;;;;21.48;7.07;;;;;;;8.48;100.00;101050.16;5104904;28;20047;-78
2024/02/06 08:53:45;;;;;;;22.70;6.53;;;;;;;8.38;100.00;101036.78;5108248;28;20039;-78
2024/02/06 08:56:11;;;;;;;23.75;7.28;;;;;;;8.34;100.00;101039.34;5105344;28;20413;-78
2024/02/06 08:58:36;;;;;;;21.77;7.38;;;;;;;8.25;100.00;101039.22;5107204;28;20517;-78
2024/02/06 09:01:02;;;;;;;22.65;7.63;;;;;;;8.27;100.00;101046.28;5087955;28;20522;-78
2024/02/06 09:03:28;;;;;;;23.25;7.95;;;;;;;8.19;100.00;101037.34;5105999;28;20039;-78
2024/02/06 09:05:54;;;;;;;22.88;7.80;;;;;;;8.23;100.00;101049.72;5107073;28;20470;-78
2024/02/06 09:08:20;;;;;;;23.70;8.40;;;;;;;8.16;100.00;101034.66;5104489;28;20490;-77
2024/02/06 09:10:46;;;;;;;23.73;8.10;;;;;;;8.20;100.00;101033.88;5089579;28;20076;-78
2024/02/06 09:13:12;;;;;;;23.02;8.32;;;;;;;8.17;100.00;101025.91;5104631;28;20032;-78
2024/02/06 09:15:37;;;;;;;24.65;9.35;;;;;;;8.14;100.00;101021.47;5106811;28;20372;-78
2024/02/06 09:18:03;;;;;;;24.50;9.05;;;;;;;8.13;100.00;101024.09;5105673;28;20066;-78
2024/02/06 09:20:28;;;;;;;24.92;9.00;;;;;;;8.17;100.00;101029.44;5105457;28;20039;-77
2024/02/06 09:22:54;;;;;;;23.65;8.88;;;;;;;8.19;100.00;101030.31;5106793;28;20531;-78
2024/02/06 09:25:19;;;;;;;24.42;9.07;;;;;;;8.24;100.00;101035.66;5104327;28;20020;-78
2024/02/06 09:27:45;;;;;;;24.17;8.98;;;;;;;8.30;100.00;101042.78;5107478;28;20054;-78
2024/02/06 09:30:11;;;;;;;23.40;8.82;;;;;;;8.31;100.00;101018.22;5104070;28;20028;-77
2024/02/06 09:32:40;;;;;;;25.52;8.50;;;;;;;8.36;100.00;101016.56;5106722;28;20024;-78
2024/02/06 09:35:07;;;;;;;23.20;9.00;;;;;;;8.44;100.00;101027.22;5104736;28;20161;-78
2024/02/06 09:37:32;;;;;;;24.05;8.82;;;;;;;8.48;100.00;101032.59;5105725;28;20484;-77
2024/02/06 09:39:58;;;;;;;28.77;8.73;;;;;;;8.50;100.00;101024.72;5106033;28;20120;-77
2024/02/06 09:42:24;;;;;;;25.90;8.82;;;;;;;8.48;100.00;101016.78;5086469;28;20057;-77
2024/02/06 09:44:49;;;;;;;24.15;8.68;;;;;;;8.49;100.00;101009.75;5105870;28;20475;-77
2024/02/06 09:47:15;;;;;;;26.08;9.13;;;;;;;8.48;100.00;101021.19;5103666;28;20020;-77
2024/02/06 09:49:40;;;;;;;25.48;8.98;;;;;;;8.49;100.00;101000.13;5106539;28;20479;-77
2024/02/06 09:52:08;;;;;;;24.65;8.98;;;;;;;8.51;100.00;101010.69;5104885;28;20034;-77
2024/02/06 09:54:41;;;;;;;25.08;8.73;;;;;;;8.50;100.00;101017.72;5105814;28;20032;-77
2024/02/06 09:57:07;;;;;;;23.38;9.00;;;;;;;8.45;100.00;101014.09;5104585;28;20095;-77
2024/02/06 09:59:33;;;;;;;24.23;8.80;;;;;;;8.52;100.00;101013.34;5105047;28;20042;-76
2024/02/06 10:02:00;;;;;;;21.92;8.55;;;;;;;8.49;100.00;101022.94;5087486;28;20028;-76
2024/02/06 10:04:30;;;;;;;25.00;8.55;;;;;;;8.47;100.00;100996.56;5104270;28;20039;-76
2024/02/06 10:06:57;;;;;;;25.75;8.98;;;;;;;8.50;100.00;101007.19;5105717;28;20023;-76
2024/02/06 10:09:25;;;;;;;26.60;9.45;;;;;;;8.49;100.00;100999.22;5103777;28;20048;-76
2024/02/06 10:11:52;;;;;;;25.08;8.93;;;;;;;8.56;100.00;100998.44;5106253;28;20027;-76
2024/02/06 10:14:18;;;;;;;23.63;8.52;;;;;;;8.60;100.00;100994.13;5103039;28;20085;-76
2024/02/06 10:16:43;;;;;;;25.42;8.88;;;;;;;8.59;100.00;100985.34;5106551;28;20031;-76
2024/02/06 10:19:09;;;;;;;23.63;7.90;;;;;;;8.64;100.00;100983.66;5103581;28;20118;-76
2024/02/06 10:21:34;;;;;;;23.50;8.90;;;;;;;8.61;100.00;100978.34;5105156;28;20111;-77
2024/02/06 10:24:04;;;;;;;24.67;9.25;;;;;;;8.58;100.00;100982.66;5087290;28;20407;-76
2024/02/06 10:26:31;;;;;;;27.85;9.43;;;;;;;8.57;100.00;100976.50;5104608;28;20112;-77
2024/02/06 10:29:17;;;;;;;25.48;9.23;;;;;;;8.63;100.00;100975.72;5086873;28;20118;-77
2024/02/06 10:31:42;;;;;;;22.83;9.27;;;;;;;8.57;100.00;100978.28;5106078;28;20104;-77
2024/02/06 10:34:11;;;;;;;24.33;9.10;;;;;;;8.57;100.00;100980.91;5103712;28;20065;-77
2024/02/06 10:36:37;;;;;;;25.95;9.85;;;;;;;8.57;100.00;100994.09;5105071;28;20036;-77
2024/02/06 10:39:03;;;;;;;25.38;9.25;;;;;;;8.59;100.00;100987.06;5104213;28;20157;-77
2024/02/06 10:41:28;;;;;;;26.30;9.27;;;;;;;8.58;100.00;100980.03;5103928;28;20032;-77
2024/02/06 10:43:54;;;;;;;25.67;9.63;;;;;;;8.58;100.00;100988.84;5087129;28;20038;-77
2024/02/06 10:46:23;;;;;;;24.00;9.55;;;;;;;8.64;100.00;100978.38;5102416;28;20356;-77
2024/02/06 10:48:53;;;;;;;24.33;9.20;;;;;;;8.64;100.00;100981.00;5106123;28;20076;-77
2024/02/06 10:51:24;;;;;;;24.23;9.32;;;;;;;8.64;100.00;100999.47;5102308;28;20036;-78
2024/02/06 10:53:50;;;;;;;24.80;9.20;;;;;;;8.68;100.00;100964.38;5084380;28;20031;-77
2024/02/06 10:56:16;;;;;;;24.33;8.70;;;;;;;8.68;100.00;100959.13;5087269;28;20115;-77
2024/02/06 10:59:01;;;;;;;23.92;9.40;;;;;;;8.65;100.00;100953.81;5103126;28;20043;-77
2024/02/06 11:01:45;;;;;;;23.42;8.98;;;;;;;8.71;100.00;100945.09;5103363;28;20027;-77
2024/02/06 11:04:12;;;;;;;21.38;9.00;;;;;;;8.66;100.00;100955.56;5102616;28;20360;-77
2024/02/06 11:06:40;;;;;;;24.30;9.55;;;;;;;8.61;100.00;100949.34;5099525;28;20435;-77
2024/02/06 11:09:08;;;;;;;23.77;9.60;;;;;;;8.63;100.00;100952.00;5103382;28;20040;-77
2024/02/06 11:11:34;;;;;;;24.92;9.60;;;;;;;8.63;100.00;100947.59;5104390;28;20031;-77